This is the latest recevied weather packets stored in our database for station/object VA7IS. If no packets are shown the sender has not sent any weather packets the latest 10 day(s).
| Time | Temp. | Humidity | Pressure | Rain* | Wind** | Luminosity | Snow |
|---|---|---|---|---|---|---|---|
| 1777475103 | 9.44° C | 1% | 1024.7 hPa | 0 mm | - | - | - |
| 1777471503 | 7.78° C | 1% | 1024.5 hPa | 0 mm | - | - | - |
| 1777470603 | 7.78° C | 1% | 1024.4 hPa | 0 mm | - | - | - |
| 1777469704 | 7.78° C | 1% | 1024.4 hPa | 0 mm | - | - | - |
| 1777469103 | 7.78° C | 1% | 1024.3 hPa | 0 mm | - | - | - |
| 1777466404 | 7.78° C | 1% | 1024.3 hPa | 0 mm | - | - | - |
| 1777463703 | 8.33° C | 1% | 1024 hPa | 0 mm | - | - | - |
| 1777462804 | 8.33° C | 1% | 1024 hPa | 0 mm | - | - | - |
| 1777462503 | 8.33° C | 1% | 1024 hPa | 0 mm | - | - | - |
| 1777461303 | 8.33° C | 1% | 1023.9 hPa | 0 mm | - | - | - |
| 1777457103 | 9.44° C | 1% | 1023.4 hPa | 0 mm | - | - | - |
| 1777452604 | 10° C | 1% | 1023.4 hPa | 0 mm | - | - | - |
| 1777450505 | 10.56° C | 1% | 1023.4 hPa | 0 mm | - | - | - |
| 1777448405 | 11.11° C | 1% | 1023.2 hPa | 0 mm | - | - | - |
| 1777446006 | 11.11° C | 1% | 1023.1 hPa | 0 mm | - | - | - |
| 1777445705 | 11.11° C | 1% | 1023 hPa | 0 mm | - | - | - |
| 1777443305 | 10.56° C | 1% | 1023 hPa | 0 mm | - | - | - |
| 1777440305 | 11.67° C | 1% | 1022.8 hPa | 0 mm | - | - | - |
| 1777438505 | 11.67° C | 1% | 1022.7 hPa | 0 mm | - | - | - |
| 1777437604 | 11.67° C | 1% | 1022.6 hPa | 0 mm | - | - | - |
| 1777429805 | 13.33° C | 7% | 1021.5 hPa | 0 mm | - | - | - |
| 1777428605 | 13.33° C | 16% | 1021.6 hPa | 0 mm | - | - | - |
| 1777427704 | 13.33° C | 14% | 1021.6 hPa | 0 mm | - | - | - |
| 1777427405 | 13.33° C | 15% | 1021.6 hPa | 0 mm | - | - | - |
| 1777426805 | 13.33° C | 16% | 1021.5 hPa | 0 mm | - | - | - |
* Rain latest hour (hover to see other rain measurements)
** Current wind speed in m/s (hover to see current wind gust speed)